sensor_id;sensor_type;location;lat;lon;timestamp;temperature;humidity
35111;DHT22;21290;50.158;8.658;2022-10-03T00:01:59;10.80;99.90
35111;DHT22;21290;50.158;8.658;2022-10-03T00:07:50;10.70;99.90
35111;DHT22;21290;50.158;8.658;2022-10-03T00:30:23;10.40;99.90
35111;DHT22;21290;50.158;8.658;2022-10-03T00:35:39;10.30;99.90
35111;DHT22;21290;50.158;8.658;2022-10-03T00:38:36;10.20;99.90
35111;DHT22;21290;50.158;8.658;2022-10-03T00:44:20;10.00;99.90
35111;DHT22;21290;50.158;8.658;2022-10-03T00:49:57;9.80;99.90
35111;DHT22;21290;50.158;8.658;2022-10-03T00:53:07;9.70;99.90
35111;DHT22;21290;50.158;8.658;2022-10-03T00:55:49;9.70;99.90
35111;DHT22;21290;50.158;8.658;2022-10-03T01:01:43;9.60;99.90
35111;DHT22;21290;50.158;8.658;2022-10-03T01:12:19;9.70;99.90
35111;DHT22;21290;50.158;8.658;2022-10-03T01:17:38;9.70;99.90
35111;DHT22;21290;50.158;8.658;2022-10-03T01:20:31;9.70;99.90
35111;DHT22;21290;50.158;8.658;2022-10-03T01:23:24;9.60;99.90
35111;DHT22;21290;50.158;8.658;2022-10-03T01:29:25;9.70;99.90
35111;DHT22;21290;50.158;8.658;2022-10-03T01:34:47;9.80;99.90
35111;DHT22;21290;50.158;8.658;2022-10-03T01:37:26;9.80;99.90
35111;DHT22;21290;50.158;8.658;2022-10-03T01:43:29;9.80;99.90
35111;DHT22;21290;50.158;8.658;2022-10-03T01:51:54;9.80;99.90
35111;DHT22;21290;50.158;8.658;2022-10-03T01:54:54;9.80;99.90
35111;DHT22;21290;50.158;8.658;2022-10-03T02:00:18;9.70;99.90
35111;DHT22;21290;50.158;8.658;2022-10-03T02:03:05;9.60;99.90
35111;DHT22;21290;50.158;8.658;2022-10-03T02:08:26;9.60;99.90
35111;DHT22;21290;50.158;8.658;2022-10-03T02:11:06;9.50;99.90
35111;DHT22;21290;50.158;8.658;2022-10-03T02:16:21;9.50;99.90
35111;DHT22;21290;50.158;8.658;2022-10-03T02:19:24;9.50;99.90
35111;DHT22;21290;50.158;8.658;2022-10-03T02:21:53;9.50;99.90
35111;DHT22;21290;50.158;8.658;2022-10-03T02:31:00;9.60;99.90
35111;DHT22;21290;50.158;8.658;2022-10-03T02:34:00;9.60;99.90
35111;DHT22;21290;50.158;8.658;2022-10-03T02:37:14;9.60;99.90
35111;DHT22;21290;50.158;8.658;2022-10-03T02:43:17;9.80;99.90
35111;DHT22;21290;50.158;8.658;2022-10-03T02:46:03;9.80;99.90
35111;DHT22;21290;50.158;8.658;2022-10-03T02:54:54;9.70;99.90
35111;DHT22;21290;50.158;8.658;2022-10-03T03:00:09;9.60;99.90
35111;DHT22;21290;50.158;8.658;2022-10-03T03:02:58;9.60;99.90
35111;DHT22;21290;50.158;8.658;2022-10-03T03:05:51;9.60;99.90
35111;DHT22;21290;50.158;8.658;2022-10-03T03:08:31;9.50;99.90
35111;DHT22;21290;50.158;8.658;2022-10-03T03:11:25;9.40;99.90
35111;DHT22;21290;50.158;8.658;2022-10-03T03:14:30;9.30;99.90
35111;DHT22;21290;50.158;8.658;2022-10-03T03:17:31;9.30;99.90
35111;DHT22;21290;50.158;8.658;2022-10-03T03:20:31;9.30;99.90
35111;DHT22;21290;50.158;8.658;2022-10-03T03:23:34;9.20;99.90
35111;DHT22;21290;50.158;8.658;2022-10-03T03:37:18;9.00;99.90
35111;DHT22;21290;50.158;8.658;2022-10-03T03:43:01;9.10;99.90
35111;DHT22;21290;50.158;8.658;2022-10-03T03:48:19;9.20;99.90
35111;DHT22;21290;50.158;8.658;2022-10-03T03:53:50;9.20;99.90
35111;DHT22;21290;50.158;8.658;2022-10-03T03:56:51;9.30;99.90
35111;DHT22;21290;50.158;8.658;2022-10-03T04:02:22;9.40;99.90
35111;DHT22;21290;50.158;8.658;2022-10-03T04:05:00;9.30;99.90
35111;DHT22;21290;50.158;8.658;2022-10-03T04:07:45;9.40;99.90
35111;DHT22;21290;50.158;8.658;2022-10-03T04:10:30;9.50;99.90
35111;DHT22;21290;50.158;8.658;2022-10-03T04:19:19;9.30;99.90
35111;DHT22;21290;50.158;8.658;2022-10-03T04:22:13;9.30;99.90
35111;DHT22;21290;50.158;8.658;2022-10-03T04:30:15;9.50;99.90
35111;DHT22;21290;50.158;8.658;2022-10-03T04:36:22;9.40;99.90
35111;DHT22;21290;50.158;8.658;2022-10-03T04:42:09;9.40;99.90
35111;DHT22;21290;50.158;8.658;2022-10-03T04:47:39;9.50;99.90
35111;DHT22;21290;50.158;8.658;2022-10-03T04:50:20;9.50;99.90
35111;DHT22;21290;50.158;8.658;2022-10-03T04:53:04;9.50;99.90
35111;DHT22;21290;50.158;8.658;2022-10-03T04:55:42;9.50;99.90
35111;DHT22;21290;50.158;8.658;2022-10-03T05:09:06;9.70;99.90
35111;DHT22;21290;50.158;8.658;2022-10-03T05:11:52;9.70;99.90
35111;DHT22;21290;50.158;8.658;2022-10-03T05:16:59;9.80;99.90
35111;DHT22;21290;50.158;8.658;2022-10-03T05:22:53;9.80;99.90
35111;DHT22;21290;50.158;8.658;2022-10-03T05:25:42;9.80;99.90
35111;DHT22;21290;50.158;8.658;2022-10-03T05:28:24;9.80;99.90
35111;DHT22;21290;50.158;8.658;2022-10-03T05:33:53;9.80;99.90
35111;DHT22;21290;50.158;8.658;2022-10-03T05:37:04;9.80;99.90
35111;DHT22;21290;50.158;8.658;2022-10-03T05:39:57;9.90;99.90
35111;DHT22;21290;50.158;8.658;2022-10-03T05:45:40;10.00;99.90
35111;DHT22;21290;50.158;8.658;2022-10-03T05:48:30;10.00;99.90
35111;DHT22;21290;50.158;8.658;2022-10-03T05:53:58;10.00;99.90
35111;DHT22;21290;50.158;8.658;2022-10-03T06:02:24;10.00;99.90
35111;DHT22;21290;50.158;8.658;2022-10-03T06:05:12;10.00;99.90
35111;DHT22;21290;50.158;8.658;2022-10-03T06:11:04;10.00;99.90
35111;DHT22;21290;50.158;8.658;2022-10-03T06:16:24;10.20;99.90
35111;DHT22;21290;50.158;8.658;2022-10-03T06:24:47;10.70;99.90
35111;DHT22;21290;50.158;8.658;2022-10-03T06:27:39;10.90;99.90
35111;DHT22;21290;50.158;8.658;2022-10-03T06:36:20;11.50;99.90
35111;DHT22;21290;50.158;8.658;2022-10-03T06:45:00;11.90;99.90
35111;DHT22;21290;50.158;8.658;2022-10-03T06:50:32;11.70;99.90
35111;DHT22;21290;50.158;8.658;2022-10-03T06:55:53;11.80;99.90
35111;DHT22;21290;50.158;8.658;2022-10-03T06:58:47;11.90;99.90
35111;DHT22;21290;50.158;8.658;2022-10-03T07:13:17;12.30;99.90
35111;DHT22;21290;50.158;8.658;2022-10-03T07:15:56;12.50;99.90
35111;DHT22;21290;50.158;8.658;2022-10-03T07:21:55;13.30;99.90
35111;DHT22;21290;50.158;8.658;2022-10-03T07:24:52;13.80;99.90
35111;DHT22;21290;50.158;8.658;2022-10-03T07:30:22;16.80;99.90
35111;DHT22;21290;50.158;8.658;2022-10-03T07:36:26;18.90;99.90
35111;DHT22;21290;50.158;8.658;2022-10-03T07:47:59;22.20;99.90
35111;DHT22;21290;50.158;8.658;2022-10-03T07:50:55;25.10;98.50
35111;DHT22;21290;50.158;8.658;2022-10-03T07:56:23;28.70;89.60
35111;DHT22;21290;50.158;8.658;2022-10-03T08:05:13;29.90;76.70
35111;DHT22;21290;50.158;8.658;2022-10-03T08:19:07;32.10;68.30
35111;DHT22;21290;50.158;8.658;2022-10-03T08:24:56;33.10;65.80
35111;DHT22;21290;50.158;8.658;2022-10-03T08:27:50;33.40;64.50
35111;DHT22;21290;50.158;8.658;2022-10-03T08:41:58;34.60;59.90
35111;DHT22;21290;50.158;8.658;2022-10-03T08:44:44;34.60;57.10
35111;DHT22;21290;50.158;8.658;2022-10-03T09:07:17;32.20;58.20
35111;DHT22;21290;50.158;8.658;2022-10-03T09:12:53;36.00;55.30
35111;DHT22;21290;50.158;8.658;2022-10-03T09:21:26;37.80;51.50
35111;DHT22;21290;50.158;8.658;2022-10-03T09:27:21;37.00;49.60
35111;DHT22;21290;50.158;8.658;2022-10-03T09:33:08;35.30;50.50
35111;DHT22;21290;50.158;8.658;2022-10-03T10:09:45;22.80;67.00
35111;DHT22;21290;50.158;8.658;2022-10-03T10:20:33;32.90;53.60
35111;DHT22;21290;50.158;8.658;2022-10-03T10:23:13;34.30;51.60
35111;DHT22;21290;50.158;8.658;2022-10-03T10:29:00;35.90;48.70
35111;DHT22;21290;50.158;8.658;2022-10-03T10:37:42;30.70;52.10
35111;DHT22;21290;50.158;8.658;2022-10-03T10:40:43;30.10;54.00
35111;DHT22;21290;50.158;8.658;2022-10-03T10:43:52;29.00;54.00
35111;DHT22;21290;50.158;8.658;2022-10-03T11:04:04;25.20;61.30
35111;DHT22;21290;50.158;8.658;2022-10-03T11:09:36;25.10;60.90
35111;DHT22;21290;50.158;8.658;2022-10-03T11:21:16;24.50;63.80
35111;DHT22;21290;50.158;8.658;2022-10-03T11:24:26;25.20;61.60
35111;DHT22;21290;50.158;8.658;2022-10-03T11:30:19;25.90;59.90
35111;DHT22;21290;50.158;8.658;2022-10-03T11:33:24;25.80;61.60
35111;DHT22;21290;50.158;8.658;2022-10-03T11:42:03;29.60;56.40
35111;DHT22;21290;50.158;8.658;2022-10-03T11:45:04;30.10;56.50
35111;DHT22;21290;50.158;8.658;2022-10-03T11:50:22;28.80;55.50
35111;DHT22;21290;50.158;8.658;2022-10-03T11:52:56;27.80;55.50
35111;DHT22;21290;50.158;8.658;2022-10-03T11:55:37;27.40;57.40
35111;DHT22;21290;50.158;8.658;2022-10-03T12:13:28;23.00;64.80
35111;DHT22;21290;50.158;8.658;2022-10-03T12:15:56;22.50;67.20
35111;DHT22;21290;50.158;8.658;2022-10-03T12:18:48;22.10;67.20
35111;DHT22;21290;50.158;8.658;2022-10-03T12:21:44;21.80;68.20
35111;DHT22;21290;50.158;8.658;2022-10-03T12:24:24;21.50;68.00
35111;DHT22;21290;50.158;8.658;2022-10-03T12:27:03;21.00;68.00
35111;DHT22;21290;50.158;8.658;2022-10-03T12:29:35;20.70;69.20
35111;DHT22;21290;50.158;8.658;2022-10-03T12:32:30;20.30;71.40
35111;DHT22;21290;50.158;8.658;2022-10-03T12:35:14;20.00;70.80
35111;DHT22;21290;50.158;8.658;2022-10-03T12:38:14;19.80;71.30
35111;DHT22;21290;50.158;8.658;2022-10-03T12:40:57;19.70;72.90
35111;DHT22;21290;50.158;8.658;2022-10-03T12:43:49;19.70;71.30
35111;DHT22;21290;50.158;8.658;2022-10-03T12:46:42;19.80;72.90
35111;DHT22;21290;50.158;8.658;2022-10-03T12:49:19;19.70;72.30
35111;DHT22;21290;50.158;8.658;2022-10-03T12:52:01;19.90;71.70
35111;DHT22;21290;50.158;8.658;2022-10-03T12:54:58;20.10;72.70
35111;DHT22;21290;50.158;8.658;2022-10-03T13:08:53;20.70;73.30
35111;DHT22;21290;50.158;8.658;2022-10-03T13:14:41;20.70;73.60
35111;DHT22;21290;50.158;8.658;2022-10-03T13:17:27;20.50;73.80
35111;DHT22;21290;50.158;8.658;2022-10-03T13:20:05;20.30;75.10
35111;DHT22;21290;50.158;8.658;2022-10-03T13:23:20;20.10;75.80
35111;DHT22;21290;50.158;8.658;2022-10-03T13:26:01;19.90;76.60
35111;DHT22;21290;50.158;8.658;2022-10-03T13:31:25;19.60;80.10
35111;DHT22;21290;50.158;8.658;2022-10-03T13:33:56;19.50;81.00
35111;DHT22;21290;50.158;8.658;2022-10-03T13:36:31;19.30;83.00
35111;DHT22;21290;50.158;8.658;2022-10-03T13:39:28;19.20;86.50
35111;DHT22;21290;50.158;8.658;2022-10-03T13:42:19;19.00;88.60
35111;DHT22;21290;50.158;8.658;2022-10-03T13:44:51;18.90;90.40
35111;DHT22;21290;50.158;8.658;2022-10-03T13:47:34;18.70;91.90
35111;DHT22;21290;50.158;8.658;2022-10-03T13:50:06;18.50;93.00
35111;DHT22;21290;50.158;8.658;2022-10-03T13:53:25;18.40;94.60
35111;DHT22;21290;50.158;8.658;2022-10-03T13:55:48;18.30;96.60
35111;DHT22;21290;50.158;8.658;2022-10-03T14:01:13;18.20;98.60
35111;DHT22;21290;50.158;8.658;2022-10-03T14:03:45;18.20;99.10
35111;DHT22;21290;50.158;8.658;2022-10-03T14:09:49;18.10;99.90
35111;DHT22;21290;50.158;8.658;2022-10-03T14:12:58;18.00;99.90
35111;DHT22;21290;50.158;8.658;2022-10-03T14:15:41;18.00;99.90
35111;DHT22;21290;50.158;8.658;2022-10-03T14:18:44;18.00;99.90
35111;DHT22;21290;50.158;8.658;2022-10-03T14:24:17;17.90;99.90
35111;DHT22;21290;50.158;8.658;2022-10-03T14:27:27;17.80;99.90
35111;DHT22;21290;50.158;8.658;2022-10-03T14:29:59;17.80;99.30
35111;DHT22;21290;50.158;8.658;2022-10-03T14:35:40;17.80;99.90
35111;DHT22;21290;50.158;8.658;2022-10-03T14:41:21;17.90;99.80
35111;DHT22;21290;50.158;8.658;2022-10-03T14:43:58;18.00;99.70
35111;DHT22;21290;50.158;8.658;2022-10-03T14:46:30;18.20;99.30
35111;DHT22;21290;50.158;8.658;2022-10-03T14:49:01;18.30;98.90
35111;DHT22;21290;50.158;8.658;2022-10-03T14:51:38;18.30;98.10
35111;DHT22;21290;50.158;8.658;2022-10-03T14:54:38;18.40;98.10
35111;DHT22;21290;50.158;8.658;2022-10-03T14:57:25;18.40;97.30
35111;DHT22;21290;50.158;8.658;2022-10-03T14:59:54;18.40;96.80
35111;DHT22;21290;50.158;8.658;2022-10-03T15:02:33;18.40;97.10
35111;DHT22;21290;50.158;8.658;2022-10-03T15:05:31;18.30;97.40
35111;DHT22;21290;50.158;8.658;2022-10-03T15:08:12;18.20;97.60
35111;DHT22;21290;50.158;8.658;2022-10-03T15:10:40;18.10;97.70
35111;DHT22;21290;50.158;8.658;2022-10-03T15:13:08;18.00;97.80
35111;DHT22;21290;50.158;8.658;2022-10-03T15:15:37;17.90;97.50
35111;DHT22;21290;50.158;8.658;2022-10-03T15:18:06;17.80;97.60
35111;DHT22;21290;50.158;8.658;2022-10-03T15:20:40;17.60;98.10
35111;DHT22;21290;50.158;8.658;2022-10-03T15:23:17;17.40;98.70
35111;DHT22;21290;50.158;8.658;2022-10-03T15:25:46;17.30;98.80
35111;DHT22;21290;50.158;8.658;2022-10-03T15:28:41;17.20;99.70
35111;DHT22;21290;50.158;8.658;2022-10-03T15:31:13;17.10;99.90
35111;DHT22;21290;50.158;8.658;2022-10-03T15:33:43;17.00;99.90
35111;DHT22;21290;50.158;8.658;2022-10-03T15:36:21;17.00;99.90
35111;DHT22;21290;50.158;8.658;2022-10-03T15:38:55;17.00;99.90
35111;DHT22;21290;50.158;8.658;2022-10-03T15:41:26;17.00;99.90
35111;DHT22;21290;50.158;8.658;2022-10-03T15:44:18;17.00;99.90
35111;DHT22;21290;50.158;8.658;2022-10-03T15:46:50;16.90;99.90
35111;DHT22;21290;50.158;8.658;2022-10-03T15:49:26;16.90;99.90
35111;DHT22;21290;50.158;8.658;2022-10-03T15:51:54;16.80;99.90
35111;DHT22;21290;50.158;8.658;2022-10-03T15:54:23;16.70;99.90
35111;DHT22;21290;50.158;8.658;2022-10-03T15:56:54;16.60;99.90
35111;DHT22;21290;50.158;8.658;2022-10-03T15:59:25;16.60;99.90
35111;DHT22;21290;50.158;8.658;2022-10-03T16:01:54;16.50;99.90
35111;DHT22;21290;50.158;8.658;2022-10-03T16:04:30;16.40;99.90
35111;DHT22;21290;50.158;8.658;2022-10-03T16:07:34;16.30;99.90
35111;DHT22;21290;50.158;8.658;2022-10-03T16:10:13;16.20;99.90
35111;DHT22;21290;50.158;8.658;2022-10-03T16:20:52;16.20;99.90
35111;DHT22;21290;50.158;8.658;2022-10-03T16:23:29;16.10;99.90
35111;DHT22;21290;50.158;8.658;2022-10-03T16:26:04;16.10;99.90
35111;DHT22;21290;50.158;8.658;2022-10-03T16:28:36;16.00;99.90
35111;DHT22;21290;50.158;8.658;2022-10-03T16:31:11;16.00;99.90
35111;DHT22;21290;50.158;8.658;2022-10-03T16:33:50;15.90;99.90
35111;DHT22;21290;50.158;8.658;2022-10-03T16:36:23;15.90;99.90
35111;DHT22;21290;50.158;8.658;2022-10-03T16:38:51;15.80;99.90
35111;DHT22;21290;50.158;8.658;2022-10-03T16:41:34;15.80;99.90
35111;DHT22;21290;50.158;8.658;2022-10-03T16:44:18;15.70;99.90
35111;DHT22;21290;50.158;8.658;2022-10-03T16:46:46;15.60;99.90
35111;DHT22;21290;50.158;8.658;2022-10-03T16:49:27;15.50;99.90
35111;DHT22;21290;50.158;8.658;2022-10-03T16:52:16;15.40;99.90
35111;DHT22;21290;50.158;8.658;2022-10-03T16:54:45;15.30;99.90
35111;DHT22;21290;50.158;8.658;2022-10-03T16:57:23;15.20;99.90
35111;DHT22;21290;50.158;8.658;2022-10-03T16:59:52;15.00;99.90
35111;DHT22;21290;50.158;8.658;2022-10-03T17:02:26;14.90;99.90
35111;DHT22;21290;50.158;8.658;2022-10-03T17:05:05;14.70;99.90
35111;DHT22;21290;50.158;8.658;2022-10-03T17:07:42;14.60;99.90
35111;DHT22;21290;50.158;8.658;2022-10-03T17:10:35;14.40;99.90
35111;DHT22;21290;50.158;8.658;2022-10-03T17:13:16;14.30;99.90
35111;DHT22;21290;50.158;8.658;2022-10-03T17:16:09;14.20;99.90
35111;DHT22;21290;50.158;8.658;2022-10-03T17:18:42;14.10;99.90
35111;DHT22;21290;50.158;8.658;2022-10-03T17:21:24;14.00;99.90
35111;DHT22;21290;50.158;8.658;2022-10-03T17:26:43;13.80;99.90
35111;DHT22;21290;50.158;8.658;2022-10-03T17:31:51;13.70;99.90
35111;DHT22;21290;50.158;8.658;2022-10-03T17:34:33;13.60;99.90
35111;DHT22;21290;50.158;8.658;2022-10-03T17:37:30;13.50;99.90
35111;DHT22;21290;50.158;8.658;2022-10-03T17:43:29;13.40;99.90
35111;DHT22;21290;50.158;8.658;2022-10-03T17:46:11;13.30;99.90
35111;DHT22;21290;50.158;8.658;2022-10-03T17:49:01;13.30;99.90
35111;DHT22;21290;50.158;8.658;2022-10-03T17:51:37;13.20;99.90
35111;DHT22;21290;50.158;8.658;2022-10-03T17:54:13;13.20;99.90
35111;DHT22;21290;50.158;8.658;2022-10-03T17:56:53;13.20;99.90
35111;DHT22;21290;50.158;8.658;2022-10-03T17:59:26;13.20;99.90
35111;DHT22;21290;50.158;8.658;2022-10-03T18:05:28;13.00;99.90
35111;DHT22;21290;50.158;8.658;2022-10-03T18:07:55;13.00;99.90
35111;DHT22;21290;50.158;8.658;2022-10-03T18:10:30;12.90;99.90
35111;DHT22;21290;50.158;8.658;2022-10-03T18:13:00;12.80;99.90
35111;DHT22;21290;50.158;8.658;2022-10-03T18:21:06;12.60;99.90
35111;DHT22;21290;50.158;8.658;2022-10-03T18:26:45;12.60;99.90
35111;DHT22;21290;50.158;8.658;2022-10-03T18:29:33;12.50;99.90
35111;DHT22;21290;50.158;8.658;2022-10-03T18:32:13;12.40;99.90
35111;DHT22;21290;50.158;8.658;2022-10-03T18:35:01;12.40;99.90
35111;DHT22;21290;50.158;8.658;2022-10-03T18:39:58;12.10;99.90
35111;DHT22;21290;50.158;8.658;2022-10-03T18:42:26;12.10;99.90
35111;DHT22;21290;50.158;8.658;2022-10-03T18:44:57;12.00;99.90
35111;DHT22;21290;50.158;8.658;2022-10-03T18:47:25;11.90;99.90
35111;DHT22;21290;50.158;8.658;2022-10-03T18:53:15;11.70;99.90
35111;DHT22;21290;50.158;8.658;2022-10-03T18:55:48;11.60;99.90
35111;DHT22;21290;50.158;8.658;2022-10-03T18:58:21;11.60;99.90
35111;DHT22;21290;50.158;8.658;2022-10-03T19:03:47;11.40;99.90
35111;DHT22;21290;50.158;8.658;2022-10-03T19:08:57;11.20;99.90
35111;DHT22;21290;50.158;8.658;2022-10-03T19:11:34;11.10;99.90
35111;DHT22;21290;50.158;8.658;2022-10-03T19:14:10;11.10;99.90
35111;DHT22;21290;50.158;8.658;2022-10-03T19:22:31;10.90;99.90
35111;DHT22;21290;50.158;8.658;2022-10-03T19:25:01;10.80;99.90
35111;DHT22;21290;50.158;8.658;2022-10-03T19:27:50;10.80;99.90
35111;DHT22;21290;50.158;8.658;2022-10-03T19:30:20;10.70;99.90
35111;DHT22;21290;50.158;8.658;2022-10-03T19:33:06;10.70;99.90
35111;DHT22;21290;50.158;8.658;2022-10-03T19:35:38;10.60;99.90
35111;DHT22;21290;50.158;8.658;2022-10-03T19:38:14;10.60;99.90
35111;DHT22;21290;50.158;8.658;2022-10-03T19:40:54;10.50;99.90
35111;DHT22;21290;50.158;8.658;2022-10-03T19:43:45;10.50;99.90
35111;DHT22;21290;50.158;8.658;2022-10-03T19:49:46;10.50;99.90
35111;DHT22;21290;50.158;8.658;2022-10-03T19:54:52;10.40;99.90
35111;DHT22;21290;50.158;8.658;2022-10-03T19:57:36;10.30;99.90
35111;DHT22;21290;50.158;8.658;2022-10-03T20:00:18;10.30;99.90
35111;DHT22;21290;50.158;8.658;2022-10-03T20:02:52;10.20;99.90
35111;DHT22;21290;50.158;8.658;2022-10-03T20:05:24;10.20;99.90
35111;DHT22;21290;50.158;8.658;2022-10-03T20:13:25;10.00;99.90
35111;DHT22;21290;50.158;8.658;2022-10-03T20:15:55;9.90;99.90
35111;DHT22;21290;50.158;8.658;2022-10-03T20:18:25;9.80;99.90
35111;DHT22;21290;50.158;8.658;2022-10-03T20:20:56;9.80;99.90
35111;DHT22;21290;50.158;8.658;2022-10-03T20:23:26;9.70;99.90
35111;DHT22;21290;50.158;8.658;2022-10-03T20:26:01;9.70;99.90
35111;DHT22;21290;50.158;8.658;2022-10-03T20:28:41;9.70;99.90
35111;DHT22;21290;50.158;8.658;2022-10-03T20:31:19;9.60;99.90
35111;DHT22;21290;50.158;8.658;2022-10-03T20:33:49;9.60;99.90
35111;DHT22;21290;50.158;8.658;2022-10-03T20:36:24;9.60;99.90
35111;DHT22;21290;50.158;8.658;2022-10-03T20:41:34;9.40;99.90
35111;DHT22;21290;50.158;8.658;2022-10-03T20:46:41;9.40;99.90
35111;DHT22;21290;50.158;8.658;2022-10-03T20:49:34;9.40;99.90
35111;DHT22;21290;50.158;8.658;2022-10-03T20:52:06;9.30;99.90
35111;DHT22;21290;50.158;8.658;2022-10-03T20:54:46;9.30;99.90
35111;DHT22;21290;50.158;8.658;2022-10-03T20:57:14;9.30;99.90
35111;DHT22;21290;50.158;8.658;2022-10-03T20:59:51;9.20;99.90
35111;DHT22;21290;50.158;8.658;2022-10-03T21:02:28;9.20;99.90
35111;DHT22;21290;50.158;8.658;2022-10-03T21:05:05;9.20;99.90
35111;DHT22;21290;50.158;8.658;2022-10-03T21:07:40;9.20;99.90
35111;DHT22;21290;50.158;8.658;2022-10-03T21:10:19;9.10;99.90
35111;DHT22;21290;50.158;8.658;2022-10-03T21:12:51;9.20;99.90
35111;DHT22;21290;50.158;8.658;2022-10-03T21:15:25;9.10;99.90
35111;DHT22;21290;50.158;8.658;2022-10-03T21:17:55;9.10;99.90
35111;DHT22;21290;50.158;8.658;2022-10-03T21:20:27;9.00;99.90
35111;DHT22;21290;50.158;8.658;2022-10-03T21:23:16;9.00;99.90
35111;DHT22;21290;50.158;8.658;2022-10-03T21:25:48;9.00;99.90
35111;DHT22;21290;50.158;8.658;2022-10-03T21:31:05;8.90;99.90
35111;DHT22;21290;50.158;8.658;2022-10-03T21:33:46;8.90;99.90
35111;DHT22;21290;50.158;8.658;2022-10-03T21:36:29;8.80;99.90
35111;DHT22;21290;50.158;8.658;2022-10-03T21:39:04;8.70;99.90
35111;DHT22;21290;50.158;8.658;2022-10-03T21:41:45;8.70;99.90
35111;DHT22;21290;50.158;8.658;2022-10-03T21:44:29;8.70;99.90
35111;DHT22;21290;50.158;8.658;2022-10-03T21:47:02;8.60;99.90
35111;DHT22;21290;50.158;8.658;2022-10-03T21:49:36;8.60;99.90
35111;DHT22;21290;50.158;8.658;2022-10-03T21:52:31;8.60;99.90
35111;DHT22;21290;50.158;8.658;2022-10-03T21:55:31;8.60;99.90
35111;DHT22;21290;50.158;8.658;2022-10-03T21:58:43;8.50;99.90
35111;DHT22;21290;50.158;8.658;2022-10-03T22:01:31;8.50;99.90
35111;DHT22;21290;50.158;8.658;2022-10-03T22:04:07;8.50;99.90
35111;DHT22;21290;50.158;8.658;2022-10-03T22:06:45;8.50;99.90
35111;DHT22;21290;50.158;8.658;2022-10-03T22:09:14;8.40;99.90
35111;DHT22;21290;50.158;8.658;2022-10-03T22:11:53;8.40;99.90
35111;DHT22;21290;50.158;8.658;2022-10-03T22:14:53;8.40;99.90
35111;DHT22;21290;50.158;8.658;2022-10-03T22:19:56;8.40;99.90
35111;DHT22;21290;50.158;8.658;2022-10-03T22:31:13;8.20;99.90
35111;DHT22;21290;50.158;8.658;2022-10-03T22:34:04;8.20;99.90
35111;DHT22;21290;50.158;8.658;2022-10-03T22:36:36;8.20;99.90
35111;DHT22;21290;50.158;8.658;2022-10-03T22:39:21;8.20;99.90
35111;DHT22;21290;50.158;8.658;2022-10-03T22:41:51;8.10;99.90
35111;DHT22;21290;50.158;8.658;2022-10-03T22:44:23;8.10;99.90
35111;DHT22;21290;50.158;8.658;2022-10-03T22:46:54;8.00;99.90
35111;DHT22;21290;50.158;8.658;2022-10-03T22:49:33;8.00;99.90
35111;DHT22;21290;50.158;8.658;2022-10-03T22:52:02;8.10;99.90
35111;DHT22;21290;50.158;8.658;2022-10-03T22:54:32;8.00;99.90
35111;DHT22;21290;50.158;8.658;2022-10-03T22:57:08;8.00;99.90
35111;DHT22;21290;50.158;8.658;2022-10-03T22:59:42;8.00;99.90
35111;DHT22;21290;50.158;8.658;2022-10-03T23:02:11;8.00;99.90
35111;DHT22;21290;50.158;8.658;2022-10-03T23:04:49;8.00;99.90
35111;DHT22;21290;50.158;8.658;2022-10-03T23:09:54;7.90;99.90
35111;DHT22;21290;50.158;8.658;2022-10-03T23:12:25;7.90;99.90
35111;DHT22;21290;50.158;8.658;2022-10-03T23:14:54;7.80;99.90
35111;DHT22;21290;50.158;8.658;2022-10-03T23:17:34;7.80;99.90
35111;DHT22;21290;50.158;8.658;2022-10-03T23:20:35;7.80;99.90
35111;DHT22;21290;50.158;8.658;2022-10-03T23:23:16;7.80;99.90
35111;DHT22;21290;50.158;8.658;2022-10-03T23:26:03;7.70;99.90
35111;DHT22;21290;50.158;8.658;2022-10-03T23:50:38;7.50;99.90
35111;DHT22;21290;50.158;8.658;2022-10-03T23:53:06;7.50;99.90
35111;DHT22;21290;50.158;8.658;2022-10-03T23:55:41;7.50;99.90
35111;DHT22;21290;50.158;8.658;2022-10-03T23:58:26;7.40;99.90
